createdAt,value
2019-06-20T00:00:28.628Z,16.84
2019-06-20T00:03:18.113Z,16.85
2019-06-20T00:06:06.623Z,16.97
2019-06-20T00:08:55.353Z,16.89
2019-06-20T00:11:44.308Z,16.86
2019-06-20T00:14:33.035Z,17.11
2019-06-20T00:17:22.590Z,17.38
2019-06-20T00:20:12.450Z,17.05
2019-06-20T00:23:01.204Z,16.92
2019-06-20T00:25:49.943Z,16.84
2019-06-20T00:28:38.603Z,16.85
2019-06-20T00:31:27.259Z,16.81
2019-06-20T00:34:15.957Z,16.92
2019-06-20T00:37:04.634Z,16.84
2019-06-20T00:39:54.643Z,16.58
2019-06-20T00:42:44.323Z,16.64
2019-06-20T00:45:34.046Z,16.54
2019-06-20T00:48:23.365Z,16.53
2019-06-20T00:51:12.720Z,16.54
2019-06-20T00:54:01.981Z,16.50
2019-06-20T00:56:51.471Z,16.63
2019-06-20T00:59:40.723Z,16.65
2019-06-20T01:02:29.456Z,16.66
2019-06-20T01:05:18.942Z,16.82
2019-06-20T01:08:07.863Z,16.70
2019-06-20T01:10:57.331Z,16.76
2019-06-20T01:13:46.246Z,16.67
2019-06-20T01:16:36.067Z,16.60
2019-06-20T01:19:24.912Z,16.82
2019-06-20T01:22:14.878Z,16.82
2019-06-20T01:25:04.431Z,16.69
2019-06-20T01:27:53.346Z,16.65
2019-06-20T01:30:43.057Z,16.65
2019-06-20T01:33:32.597Z,16.60
2019-06-20T01:36:21.471Z,16.66
2019-06-20T01:39:10.656Z,16.61
2019-06-20T01:42:00.058Z,16.63
2019-06-20T01:44:49.767Z,16.58
2019-06-20T01:47:39.029Z,16.50
2019-06-20T01:50:28.584Z,16.44
2019-06-20T01:53:18.247Z,16.36
2019-06-20T01:56:08.158Z,16.49
2019-06-20T01:58:57.817Z,16.56
2019-06-20T02:01:46.889Z,16.63
2019-06-20T02:04:36.556Z,16.64
2019-06-20T02:07:28.277Z,16.65
2019-06-20T02:10:16.369Z,16.63
2019-06-20T02:13:05.929Z,16.73
2019-06-20T02:15:55.929Z,16.71
2019-06-20T02:18:46.170Z,16.71
2019-06-20T02:21:34.735Z,16.61
2019-06-20T02:24:23.357Z,16.53
2019-06-20T02:27:12.909Z,16.65
2019-06-20T02:30:02.426Z,16.58
2019-06-20T02:32:51.632Z,16.52
2019-06-20T02:35:41.017Z,16.51
2019-06-20T02:38:30.052Z,16.56
2019-06-20T02:41:18.435Z,16.76
2019-06-20T02:44:24.748Z,16.64
2019-06-20T02:46:58.655Z,16.46
2019-06-20T02:49:48.054Z,16.48
2019-06-20T02:52:36.914Z,16.46
2019-06-20T02:55:25.663Z,16.52
2019-06-20T02:58:15.018Z,16.54
2019-06-20T03:01:04.723Z,16.51
2019-06-20T03:03:54.648Z,16.60
2019-06-20T03:06:44.408Z,16.67
2019-06-20T03:09:33.757Z,16.65
2019-06-20T03:12:23.085Z,16.79
2019-06-20T03:15:11.731Z,16.91
2019-06-20T03:18:00.844Z,16.93
2019-06-20T03:20:49.662Z,16.84
2019-06-20T03:23:38.234Z,16.77
2019-06-20T03:26:27.904Z,16.80
2019-06-20T03:29:17.081Z,16.74
2019-06-20T03:32:06.426Z,16.97
2019-06-20T03:34:55.531Z,17.09
2019-06-20T03:37:44.261Z,16.94
2019-06-20T03:40:33.637Z,16.91
2019-06-20T03:43:23.842Z,17.05
2019-06-20T03:46:12.992Z,17.06
2019-06-20T03:49:03.580Z,17.05
2019-06-20T03:51:52.836Z,17.19
2019-06-20T03:54:42.290Z,17.24
2019-06-20T03:57:31.189Z,17.36
2019-06-20T04:00:22.365Z,17.15
2019-06-20T04:03:11.851Z,17.28
2019-06-20T04:06:01.239Z,17.21
2019-06-20T04:08:50.730Z,17.13
2019-06-20T04:11:40.399Z,17.10
2019-06-20T04:14:30.063Z,17.23
2019-06-20T04:17:18.825Z,17.22
2019-06-20T04:20:08.030Z,17.41
2019-06-20T04:22:57.433Z,17.46
2019-06-20T04:25:46.279Z,17.57
2019-06-20T04:28:36.116Z,17.54
2019-06-20T04:31:25.321Z,17.62
2019-06-20T04:34:15.370Z,17.64
2019-06-20T04:37:04.536Z,17.59
2019-06-20T04:39:53.702Z,17.76
2019-06-20T04:42:42.974Z,17.73
2019-06-20T04:45:41.565Z,17.65
2019-06-20T04:48:30.918Z,17.76
2019-06-20T04:51:39.202Z,17.76
2019-06-20T04:57:31.566Z,18.00
2019-06-20T05:03:02.247Z,18.27
2019-06-20T05:06:00.275Z,18.34
2019-06-20T05:08:50.418Z,18.12
2019-06-20T05:11:46.118Z,18.24
2019-06-20T05:14:34.785Z,18.15
2019-06-20T05:17:23.586Z,18.11
2019-06-20T05:20:13.403Z,18.11
2019-06-20T05:23:03.022Z,18.20
2019-06-20T05:25:52.262Z,18.22
2019-06-20T05:28:41.008Z,18.27
2019-06-20T05:31:30.366Z,18.46
2019-06-20T05:34:19.396Z,18.71
2019-06-20T05:37:08.487Z,18.82
2019-06-20T05:39:56.874Z,19.08
2019-06-20T05:42:46.696Z,19.11
2019-06-20T05:45:36.975Z,19.26
2019-06-20T05:48:27.711Z,19.12
2019-06-20T05:51:39.745Z,19.01
2019-06-20T05:54:34.702Z,19.05
2019-06-20T06:00:39.510Z,19.50
2019-06-20T06:03:29.667Z,19.44
2019-06-20T06:06:19.138Z,19.64
2019-06-20T06:09:07.878Z,19.75
2019-06-20T06:11:57.672Z,19.65
2019-06-20T06:14:47.387Z,19.81
2019-06-20T06:17:36.150Z,19.78
2019-06-20T06:20:25.216Z,19.90
2019-06-20T06:23:14.651Z,20.18
2019-06-20T06:26:03.868Z,20.12
2019-06-20T06:28:54.101Z,20.11
2019-06-20T06:31:43.446Z,20.16
2019-06-20T06:34:33.130Z,20.15
2019-06-20T06:37:21.725Z,20.33
2019-06-20T06:40:11.914Z,20.44
2019-06-20T06:43:01.480Z,20.60
2019-06-20T06:45:50.215Z,20.75
2019-06-20T06:48:39.919Z,21.03
2019-06-20T06:51:29.329Z,20.77
2019-06-20T06:54:18.490Z,21.12
2019-06-20T06:57:06.877Z,21.42
2019-06-20T06:59:55.490Z,21.44
2019-06-20T07:02:45.065Z,22.07
2019-06-20T07:05:35.579Z,22.02
2019-06-20T07:08:25.134Z,21.70
2019-06-20T07:11:14.520Z,21.85
2019-06-20T07:14:02.869Z,21.73
2019-06-20T07:17:00.376Z,22.02
2019-06-20T07:19:43.533Z,21.89
2019-06-20T07:22:33.336Z,22.12
2019-06-20T07:25:22.634Z,22.38
2019-06-20T07:28:11.599Z,22.69
2019-06-20T07:31:01.009Z,22.35
2019-06-20T07:33:50.110Z,22.04
2019-06-20T07:36:39.674Z,21.92
2019-06-20T07:39:29.385Z,21.70
2019-06-20T07:42:18.406Z,21.79
2019-06-20T07:45:09.299Z,21.84
2019-06-20T07:47:58.395Z,21.82
2019-06-20T07:50:47.816Z,21.61
2019-06-20T07:53:37.009Z,21.65
2019-06-20T07:56:26.107Z,22.06
2019-06-20T07:59:15.457Z,22.75
2019-06-20T08:02:04.944Z,23.57
2019-06-20T08:04:55.750Z,23.48
2019-06-20T08:07:44.410Z,23.35
2019-06-20T08:10:33.009Z,23.50
2019-06-20T08:13:22.722Z,23.69
2019-06-20T08:16:11.678Z,23.59
2019-06-20T08:19:01.240Z,23.00
2019-06-20T08:21:50.593Z,23.54
2019-06-20T08:24:40.199Z,23.53
2019-06-20T08:28:07.804Z,23.65
2019-06-20T08:30:58.960Z,23.08
2019-06-20T08:34:09.743Z,23.22
2019-06-20T08:43:37.003Z,22.77
2019-06-20T08:46:32.700Z,23.44
2019-06-20T08:49:21.393Z,23.62
2019-06-20T08:52:11.106Z,23.89
2019-06-20T08:55:01.074Z,23.40
2019-06-20T08:57:50.518Z,23.58
2019-06-20T09:00:39.798Z,23.08
2019-06-20T09:03:31.069Z,22.92
2019-06-20T09:06:20.049Z,22.70
2019-06-20T09:09:09.645Z,22.59
2019-06-20T09:12:00.298Z,22.78
2019-06-20T09:14:50.764Z,23.20
2019-06-20T09:17:40.377Z,23.38
2019-06-20T09:20:29.889Z,23.39
2019-06-20T09:23:19.123Z,23.32
2019-06-20T09:26:08.722Z,22.95
2019-06-20T09:28:59.343Z,22.64
2019-06-20T09:31:48.915Z,22.46
2019-06-20T09:34:38.064Z,22.67
2019-06-20T09:37:27.237Z,23.46
2019-06-20T09:47:22.460Z,23.82
2019-06-20T09:56:37.220Z,25.18
2019-06-20T09:59:32.794Z,25.22
2019-06-20T10:05:47.289Z,24.64
2019-06-20T10:15:01.162Z,24.47
2019-06-20T10:17:51.574Z,25.39
2019-06-20T10:20:40.719Z,25.16
2019-06-20T10:23:30.163Z,24.50
2019-06-20T10:26:18.527Z,23.91
2019-06-20T10:29:06.859Z,23.95
2019-06-20T10:31:55.505Z,23.65
2019-06-20T10:34:45.656Z,23.28
2019-06-20T10:37:35.435Z,22.55
2019-06-20T10:40:25.300Z,21.84
2019-06-20T10:43:14.507Z,21.23
2019-06-20T10:46:03.850Z,20.54
2019-06-20T10:48:52.935Z,20.24
2019-06-20T10:55:00.798Z,19.94
2019-06-20T10:57:51.938Z,19.84
2019-06-20T11:00:52.278Z,20.00
2019-06-20T11:04:01.863Z,20.37
2019-06-20T11:07:10.096Z,20.60
2019-06-20T11:13:34.829Z,20.68
2019-06-20T11:16:23.710Z,20.99
2019-06-20T11:19:12.606Z,21.31
2019-06-20T11:22:02.356Z,21.54
2019-06-20T11:24:51.740Z,21.55
2019-06-20T11:27:40.572Z,21.47
2019-06-20T11:30:44.830Z,21.36
2019-06-20T11:33:05.134Z,21.11
2019-06-20T11:35:37.725Z,21.00
2019-06-20T11:38:08.614Z,21.06
2019-06-20T11:40:43.821Z,21.16
2019-06-20T11:43:15.655Z,20.92
2019-06-20T11:45:47.226Z,21.10
2019-06-20T11:48:18.132Z,21.27
2019-06-20T11:50:49.136Z,21.54
2019-06-20T11:53:21.100Z,21.85
2019-06-20T11:55:52.355Z,22.26
2019-06-20T11:58:23.631Z,22.77
2019-06-20T12:01:03.598Z,22.84
2019-06-20T12:03:27.255Z,23.17
2019-06-20T12:05:59.426Z,23.37
2019-06-20T12:08:30.670Z,23.39
2019-06-20T12:11:01.960Z,23.89
2019-06-20T12:13:33.203Z,23.78
2019-06-20T12:16:03.976Z,23.89
2019-06-20T12:18:34.774Z,24.01
2019-06-20T12:21:05.493Z,24.21
2019-06-20T12:23:36.490Z,24.37
2019-06-20T12:26:08.969Z,24.37
2019-06-20T12:28:40.738Z,24.57
2019-06-20T12:31:19.333Z,24.48
2019-06-20T12:33:45.185Z,24.24
2019-06-20T12:36:16.455Z,24.02
2019-06-20T12:38:48.380Z,23.73
2019-06-20T12:41:20.340Z,23.33
2019-06-20T12:43:51.322Z,23.00
2019-06-20T12:46:22.043Z,22.81
2019-06-20T12:48:53.589Z,22.69
2019-06-20T12:51:24.315Z,22.49
2019-06-20T12:53:55.299Z,22.14
2019-06-20T12:56:26.196Z,21.83
2019-06-20T12:58:57.184Z,21.70
2019-06-20T13:01:36.875Z,21.10
2019-06-20T13:04:00.866Z,20.07
2019-06-20T13:06:31.900Z,19.35
2019-06-20T13:09:03.087Z,19.07
2019-06-20T13:11:35.303Z,18.81
2019-06-20T13:14:06.124Z,18.70
2019-06-20T13:16:38.919Z,18.66
2019-06-20T13:19:09.734Z,18.69
2019-06-20T13:21:40.637Z,18.82
2019-06-20T13:24:11.989Z,18.90
2019-06-20T13:26:43.898Z,18.92
2019-06-20T13:29:14.727Z,18.85
2019-06-20T13:31:58.443Z,18.83
2019-06-20T13:34:18.085Z,18.81
2019-06-20T13:36:49.102Z,18.81
2019-06-20T13:39:20.324Z,19.13
2019-06-20T13:41:51.554Z,20.04
2019-06-20T13:44:22.381Z,21.24
2019-06-20T13:46:53.367Z,22.08
2019-06-20T13:49:24.377Z,22.24
2019-06-20T13:51:55.722Z,22.16
2019-06-20T13:54:26.452Z,21.97
2019-06-20T13:56:57.651Z,21.87
2019-06-20T13:59:28.613Z,21.91
2019-06-20T14:02:06.598Z,21.96
2019-06-20T14:04:33.010Z,21.87
2019-06-20T14:07:03.955Z,21.99
2019-06-20T14:09:34.689Z,22.23
2019-06-20T14:12:07.142Z,22.08
2019-06-20T14:14:38.063Z,21.91
2019-06-20T14:17:09.050Z,21.64
2019-06-20T14:19:40.036Z,21.97
2019-06-20T14:22:11.000Z,22.28
2019-06-20T14:24:43.435Z,22.20
2019-06-20T14:27:14.515Z,22.20
2019-06-20T14:29:46.534Z,22.05
2019-06-20T14:32:22.217Z,21.97
2019-06-20T14:34:52.019Z,21.88
2019-06-20T14:37:22.823Z,21.69
2019-06-20T14:39:54.934Z,21.77
2019-06-20T14:42:25.722Z,21.70
2019-06-20T14:44:56.458Z,21.61
2019-06-20T14:47:27.992Z,21.41
2019-06-20T14:49:58.731Z,21.10
2019-06-20T14:52:29.458Z,20.51
2019-06-20T14:55:00.278Z,20.19
2019-06-20T14:57:52.095Z,20.30
2019-06-20T15:00:52.158Z,20.64
2019-06-20T15:06:50.586Z,21.59
2019-06-20T15:15:58.489Z,21.92
2019-06-20T15:18:29.543Z,22.24
2019-06-20T15:21:00.676Z,22.70
2019-06-20T15:23:31.869Z,22.59
2019-06-20T15:26:02.656Z,22.67
2019-06-20T15:28:33.821Z,22.48
2019-06-20T15:31:04.547Z,22.88
2019-06-20T15:33:35.536Z,23.40
2019-06-20T15:36:06.338Z,23.91
2019-06-20T15:38:37.169Z,24.04
2019-06-20T15:41:08.187Z,23.95
2019-06-20T15:43:39.165Z,23.54
2019-06-20T15:46:10.118Z,23.17
2019-06-20T15:48:41.073Z,23.61
2019-06-20T15:51:11.809Z,23.49
2019-06-20T15:53:43.005Z,24.14
2019-06-20T15:56:13.852Z,24.19
2019-06-20T15:58:46.069Z,24.02
2019-06-20T16:01:17.112Z,24.28
2019-06-20T16:03:48.075Z,24.50
2019-06-20T16:06:18.836Z,24.27
2019-06-20T16:08:49.930Z,24.54
2019-06-20T16:11:20.640Z,24.64
2019-06-20T16:13:51.384Z,24.52
2019-06-20T16:16:22.384Z,24.36
2019-06-20T16:18:53.600Z,24.31
2019-06-20T16:21:24.396Z,24.24
2019-06-20T16:23:55.712Z,24.25
2019-06-20T16:26:26.668Z,23.71
2019-06-20T16:28:57.637Z,23.48
2019-06-20T16:31:28.449Z,23.25
2019-06-20T16:33:59.426Z,23.03
2019-06-20T16:36:30.396Z,22.96
2019-06-20T16:48:00.145Z,22.58
2019-06-20T16:50:38.492Z,22.56
2019-06-20T16:55:52.421Z,23.21
2019-06-20T16:58:43.379Z,23.60
2019-06-20T17:01:14.246Z,23.22
2019-06-20T17:04:21.840Z,23.71
2019-06-20T17:06:52.686Z,24.22
2019-06-20T17:10:28.388Z,23.91
2019-06-20T17:13:18.531Z,24.04
2019-06-20T17:16:01.769Z,23.93
2019-06-20T17:18:33.164Z,24.43
2019-06-20T17:21:03.925Z,23.81
2019-06-20T17:23:34.893Z,23.77
2019-06-20T17:26:07.239Z,23.45
2019-06-20T17:28:37.962Z,23.10
2019-06-20T17:31:08.683Z,22.94
2019-06-20T17:33:39.647Z,22.91
2019-06-20T17:39:44.381Z,23.00
2019-06-20T17:44:57.464Z,23.18
2019-06-20T17:47:52.771Z,22.90
2019-06-20T17:50:42.738Z,22.65
2019-06-20T17:53:33.197Z,22.37
2019-06-20T17:56:04.272Z,22.03
2019-06-20T17:58:55.951Z,22.00
2019-06-20T18:04:13.846Z,21.57
2019-06-20T18:07:06.968Z,21.01
2019-06-20T18:09:58.952Z,19.99
2019-06-20T18:12:29.943Z,19.69
2019-06-20T18:15:00.787Z,19.49
2019-06-20T18:17:31.521Z,19.40
2019-06-20T18:20:02.328Z,19.44
2019-06-20T18:22:33.329Z,19.53
2019-06-20T18:25:05.635Z,19.58
2019-06-20T18:27:36.435Z,19.67
2019-06-20T18:30:07.607Z,19.67
2019-06-20T18:32:39.079Z,19.62
2019-06-20T18:35:10.410Z,19.56
2019-06-20T18:37:41.219Z,19.44
2019-06-20T18:40:12.082Z,19.37
2019-06-20T18:42:43.272Z,19.29
2019-06-20T18:45:14.343Z,19.10
2019-06-20T18:47:45.083Z,19.02
2019-06-20T18:50:16.218Z,18.89
2019-06-20T18:52:52.310Z,18.83
2019-06-20T18:55:20.033Z,18.83
2019-06-20T18:57:50.834Z,18.75
2019-06-20T19:00:34.315Z,18.74
2019-06-20T19:02:54.674Z,18.69
2019-06-20T19:05:25.493Z,18.61
2019-06-20T19:07:56.294Z,18.60
2019-06-20T19:10:27.888Z,18.55
2019-06-20T19:13:00.657Z,18.50
2019-06-20T19:15:31.726Z,18.49
2019-06-20T19:18:03.742Z,18.48
2019-06-20T19:20:34.553Z,18.45
2019-06-20T19:23:05.582Z,18.40
2019-06-20T19:25:37.002Z,18.36
2019-06-20T19:28:07.827Z,18.36
2019-06-20T19:30:46.759Z,18.38
2019-06-20T19:33:17.807Z,18.32
2019-06-20T19:35:48.636Z,18.22
2019-06-20T19:38:19.680Z,18.20
2019-06-20T19:40:50.941Z,18.17
2019-06-20T19:43:21.832Z,18.15
2019-06-20T19:45:52.966Z,18.16
2019-06-20T19:48:23.956Z,18.09
2019-06-20T19:50:54.753Z,18.03
2019-06-20T19:53:25.562Z,18.03
2019-06-20T19:55:56.380Z,17.97
2019-06-20T19:58:27.196Z,17.99
2019-06-20T20:00:58.275Z,17.94
2019-06-20T20:03:29.554Z,17.93
2019-06-20T20:06:00.389Z,17.92
2019-06-20T20:08:31.238Z,17.93
2019-06-20T20:11:04.183Z,17.83
2019-06-20T20:13:34.815Z,17.85
2019-06-20T20:16:05.659Z,17.77
2019-06-20T20:18:36.383Z,17.74
2019-06-20T20:21:07.145Z,17.74
2019-06-20T20:23:37.955Z,17.68
2019-06-20T20:26:09.001Z,17.60
2019-06-20T20:28:39.705Z,17.58
2019-06-20T20:31:12.234Z,17.55
2019-06-20T20:33:43.442Z,17.44
2019-06-20T20:36:24.574Z,17.43
2019-06-20T20:38:46.621Z,17.33
2019-06-20T20:41:17.618Z,17.34
2019-06-20T20:43:48.352Z,17.32
2019-06-20T20:46:19.112Z,17.31
2019-06-20T20:48:50.080Z,17.29
2019-06-20T20:51:21.061Z,17.23
2019-06-20T20:53:52.062Z,17.18
2019-06-20T20:56:22.792Z,17.20
2019-06-20T20:58:53.517Z,17.22
2019-06-20T21:01:29.495Z,17.20
2019-06-20T21:04:00.600Z,17.21
2019-06-20T21:06:31.548Z,17.20
2019-06-20T21:09:03.543Z,17.22
2019-06-20T21:11:35.932Z,17.19
2019-06-20T21:14:07.040Z,17.17
2019-06-20T21:16:38.038Z,17.09
2019-06-20T21:19:08.846Z,17.07
2019-06-20T21:21:39.597Z,17.01
2019-06-20T21:24:10.336Z,17.00
2019-06-20T21:26:49.405Z,16.96
2019-06-20T21:29:14.208Z,16.92
2019-06-20T21:31:45.174Z,16.84
2019-06-20T21:34:16.167Z,16.75
2019-06-20T21:36:47.401Z,16.60
2019-06-20T21:39:18.389Z,16.52
2019-06-20T21:41:49.509Z,16.46
2019-06-20T21:44:20.257Z,16.42
2019-06-20T21:46:52.719Z,16.33
2019-06-20T21:49:23.568Z,16.36
2019-06-20T21:51:54.397Z,16.32
2019-06-20T21:54:25.439Z,16.30
2019-06-20T21:56:56.150Z,16.22
2019-06-20T21:59:27.159Z,16.20
2019-06-20T22:01:58.217Z,16.10
2019-06-20T22:04:29.313Z,15.99
2019-06-20T22:07:00.396Z,16.02
2019-06-20T22:09:31.294Z,16.04
2019-06-20T22:12:02.046Z,15.98
2019-06-20T22:14:33.160Z,15.88
2019-06-20T22:17:03.973Z,15.89
2019-06-20T22:19:35.057Z,15.91
2019-06-20T22:22:05.789Z,15.84
2019-06-20T22:24:36.754Z,15.80
2019-06-20T22:27:07.485Z,15.78
2019-06-20T22:29:38.538Z,15.75
2019-06-20T22:32:09.350Z,15.78
2019-06-20T22:34:40.082Z,15.74
2019-06-20T22:37:11.163Z,15.75
2019-06-20T22:39:42.378Z,15.72
2019-06-20T22:42:14.717Z,15.72
2019-06-20T22:44:45.766Z,15.77
2019-06-20T22:47:16.767Z,15.75
2019-06-20T22:49:47.506Z,15.75
2019-06-20T22:52:29.843Z,15.78
2019-06-20T23:01:23.491Z,15.60
2019-06-20T23:04:19.800Z,15.52
2019-06-20T23:13:08.947Z,15.48
2019-06-20T23:19:53.638Z,15.48
2019-06-20T23:29:18.844Z,15.52
2019-06-20T23:32:08.986Z,15.58
2019-06-20T23:34:39.721Z,15.65
2019-06-20T23:37:13.068Z,15.72
2019-06-20T23:39:43.392Z,15.79
2019-06-20T23:42:14.161Z,15.80
2019-06-20T23:44:44.969Z,15.84
2019-06-20T23:47:15.722Z,15.83
2019-06-20T23:49:46.438Z,15.86
2019-06-20T23:52:20.468Z,15.86
2019-06-20T23:54:51.283Z,15.87
2019-06-20T23:57:22.093Z,15.86
2019-06-20T23:59:52.840Z,15.99
